PWSweather.com
Personal Weather Stations
Station Observations
HESKRFRR38
Schwerin, Germany, Klein RogahnDE 19073

Schwerin, GermanyKlein RogahnDE 19073

Lat: 53.6059537, Lon: 11.3412162

Elevation: 167.3226

Station Type: VantagePro2

Latest ConditionsUpdated 9:55:00 PM GMT+01:01 Friday, May 25, 2018
Currently Today's Max Today's Min Today's Average
Temperature 60.5°F15.8°C 78.7°F25.9°C 56.4°F13.6°C 66.9°F19.4°C
Dew Point 46.5°F8.1°C 56.0°F13.3°C 43.3°F6.3°C 50.1°F10.1°C
Winds 5.4 mph ENE8.7 kmh ENE 12.4 mph ENE20.0 kmh ENE - 7.0 mph 11.3 kmh
Wind Gusts 13.0 mph20.9 kmh 20.0 mph32.2 kmh - -
Humidity 60% 81% 35% 57%
Pressure 30.14 in1020.7 mb 30.16 in1021.3 mb 30.11 in1019.6 mb -
Hour Temp Dew Point Humidity Winds Wind Gusts Pressure Precip Precip Rate Daily Precip Total
09:55 PM 60.5°F15.8°C 46.5°F8.1°C 60% 5.4 mph ENE8.7 kmh ENE 13.0 mph20.9 kmh 30.14 in1020.7 mb 0.00 in0.0 mm 0.00 in0.0 mm 0.00 in0.0 mm
09:50 PM 60.5°F15.8°C 46.5°F8.1°C 60% 4.0 mph ENE6.4 kmh ENE 12.0 mph19.3 kmh 30.14 in1020.7 mb 0.00 in0.0 mm 0.00 in0.0 mm 0.00 in0.0 mm
09:45 PM 60.7°F15.9°C 46.7°F8.2°C 60% 4.6 mph ENE7.4 kmh ENE 12.0 mph19.3 kmh 30.14 in1020.7 mb 0.00 in0.0 mm 0.00 in0.0 mm 0.00 in0.0 mm
09:40 PM 60.9°F16.1°C 46.9°F8.3°C 60% 5.2 mph NE8.4 kmh NE 10.0 mph16.1 kmh 30.14 in1020.7 mb 0.00 in0.0 mm 0.00 in0.0 mm 0.00 in0.0 mm
09:35 PM 60.9°F16.1°C 46.5°F8.1°C 59% 4.0 mph ENE6.4 kmh ENE 10.0 mph16.1 kmh 30.14 in1020.7 mb 0.00 in0.0 mm 0.00 in0.0 mm 0.00 in0.0 mm
09:30 PM 61.0°F16.1°C 47.0°F8.3°C 60% 4.2 mph ENE6.8 kmh ENE 10.0 mph16.1 kmh 30.14 in1020.7 mb 0.00 in0.0 mm 0.00 in0.0 mm 0.00 in0.0 mm
09:25 PM 61.1°F16.2°C 46.7°F8.2°C 59% 3.9 mph ENE6.3 kmh ENE 10.0 mph16.1 kmh 30.14 in1020.7 mb 0.00 in0.0 mm 0.00 in0.0 mm 0.00 in0.0 mm
09:20 PM 61.2°F16.2°C 46.8°F8.2°C 59% 3.9 mph ENE6.3 kmh ENE 10.0 mph16.1 kmh 30.14 in1020.7 mb 0.00 in0.0 mm 0.00 in0.0 mm 0.00 in0.0 mm
09:15 PM 61.3°F16.3°C 46.4°F8.0°C 58% 3.1 mph ENE5.0 kmh ENE 9.0 mph14.5 kmh 30.14 in1020.7 mb 0.00 in0.0 mm 0.00 in0.0 mm 0.00 in0.0 mm
09:10 PM 61.4°F16.3°C 46.9°F8.3°C 59% 2.9 mph ENE4.7 kmh ENE 9.0 mph14.5 kmh 30.14 in1020.7 mb 0.00 in0.0 mm 0.00 in0.0 mm 0.00 in0.0 mm
09:05 PM 61.6°F16.4°C 46.7°F8.2°C 58% 3.0 mph ENE4.8 kmh ENE 6.0 mph9.7 kmh 30.14 in1020.7 mb 0.00 in0.0 mm 0.00 in0.0 mm 0.00 in0.0 mm
09:00 PM 61.8°F16.6°C 46.9°F8.3°C 58% 2.9 mph ENE4.7 kmh ENE 8.0 mph12.9 kmh 30.14 in1020.7 mb 0.00 in0.0 mm 0.00 in0.0 mm 0.00 in0.0 mm
08:55 PM 62.1°F16.7°C 46.7°F8.2°C 57% 2.6 mph ENE4.2 kmh ENE 8.0 mph12.9 kmh 30.14 in1020.7 mb 0.00 in0.0 mm 0.00 in0.0 mm 0.00 in0.0 mm
08:50 PM 62.3°F16.8°C 46.4°F8.0°C 56% 3.3 mph NE5.3 kmh NE 8.0 mph12.9 kmh 30.14 in1020.7 mb 0.00 in0.0 mm 0.00 in0.0 mm 0.00 in0.0 mm
08:45 PM 62.6°F17.0°C 46.7°F8.2°C 56% 3.4 mph NE5.5 kmh NE 9.0 mph14.5 kmh 30.14 in1020.7 mb 0.00 in0.0 mm 0.00 in0.0 mm 0.00 in0.0 mm
08:40 PM 62.8°F17.1°C 46.9°F8.3°C 56% 4.0 mph ENE6.4 kmh ENE 9.0 mph14.5 kmh 30.14 in1020.7 mb 0.00 in0.0 mm 0.00 in0.0 mm 0.00 in0.0 mm
08:35 PM 63.1°F17.3°C 47.1°F8.4°C 56% 3.4 mph ENE5.5 kmh ENE 8.0 mph12.9 kmh 30.14 in1020.7 mb 0.00 in0.0 mm 0.00 in0.0 mm 0.00 in0.0 mm
08:30 PM 63.2°F17.3°C 46.8°F8.2°C 55% 3.7 mph ENE6.0 kmh ENE 9.0 mph14.5 kmh 30.14 in1020.7 mb 0.00 in0.0 mm 0.00 in0.0 mm 0.00 in0.0 mm
08:25 PM 63.7°F17.6°C 46.7°F8.2°C 54% 4.5 mph NE7.2 kmh NE 11.0 mph17.7 kmh 30.13 in1020.3 mb 0.00 in0.0 mm 0.00 in0.0 mm 0.00 in0.0 mm
08:20 PM 64.1°F17.8°C 46.6°F8.1°C 53% 5.0 mph ENE8.0 kmh ENE 11.0 mph17.7 kmh 30.13 in1020.3 mb 0.00 in0.0 mm 0.00 in0.0 mm 0.00 in0.0 mm
08:15 PM 64.2°F17.9°C 46.2°F7.9°C 52% 4.2 mph ENE6.8 kmh ENE 9.0 mph14.5 kmh 30.13 in1020.3 mb 0.00 in0.0 mm 0.00 in0.0 mm 0.00 in0.0 mm
08:10 PM 64.5°F18.1°C 46.5°F8.1°C 52% 4.3 mph NE6.9 kmh NE 10.0 mph16.1 kmh 30.13 in1020.3 mb 0.00 in0.0 mm 0.00 in0.0 mm 0.00 in0.0 mm
08:05 PM 64.7°F18.2°C 46.7°F8.2°C 52% 4.8 mph ENE7.7 kmh ENE 14.0 mph22.5 kmh 30.13 in1020.3 mb 0.00 in0.0 mm 0.00 in0.0 mm 0.00 in0.0 mm
08:00 PM 64.8°F18.2°C 46.2°F7.9°C 51% 5.9 mph ENE9.5 kmh ENE 14.0 mph22.5 kmh 30.13 in1020.3 mb 0.00 in0.0 mm 0.00 in0.0 mm 0.00 in0.0 mm
07:55 PM 65.0°F18.3°C 46.4°F8.0°C 51% 4.8 mph ENE7.7 kmh ENE 12.0 mph19.3 kmh 30.13 in1020.3 mb 0.00 in0.0 mm 0.00 in0.0 mm 0.00 in0.0 mm
07:50 PM 65.3°F18.5°C 46.7°F8.2°C 51% 5.6 mph NE9.0 kmh NE 12.0 mph19.3 kmh 30.12 in1020.0 mb 0.00 in0.0 mm 0.00 in0.0 mm 0.00 in0.0 mm
07:45 PM 65.6°F18.7°C 46.5°F8.1°C 50% 6.6 mph ENE10.6 kmh ENE 12.0 mph19.3 kmh 30.12 in1020.0 mb 0.00 in0.0 mm 0.00 in0.0 mm 0.00 in0.0 mm
07:40 PM 65.7°F18.7°C 46.5°F8.1°C 50% 6.0 mph NE9.7 kmh NE 11.0 mph17.7 kmh 30.12 in1020.0 mb 0.00 in0.0 mm 0.00 in0.0 mm 0.00 in0.0 mm
07:35 PM 66.0°F18.9°C 46.8°F8.2°C 50% 4.9 mph ENE7.9 kmh ENE 11.0 mph17.7 kmh 30.12 in1020.0 mb 0.00 in0.0 mm 0.00 in0.0 mm 0.00 in0.0 mm
07:30 PM 66.1°F18.9°C 46.9°F8.3°C 50% 4.6 mph ENE7.4 kmh ENE 13.0 mph20.9 kmh 30.12 in1020.0 mb 0.00 in0.0 mm 0.00 in0.0 mm 0.00 in0.0 mm
07:25 PM 66.1°F18.9°C 46.4°F8.0°C 49% 6.0 mph NE9.7 kmh NE 13.0 mph20.9 kmh 30.12 in1020.0 mb 0.00 in0.0 mm 0.00 in0.0 mm 0.00 in0.0 mm
07:20 PM 66.2°F19.0°C 47.0°F8.3°C 50% 4.2 mph NE6.8 kmh NE 11.0 mph17.7 kmh 30.12 in1020.0 mb 0.00 in0.0 mm 0.00 in0.0 mm 0.00 in0.0 mm
07:15 PM 66.3°F19.1°C 47.1°F8.4°C 50% 5.2 mph NE8.4 kmh NE 12.0 mph19.3 kmh 30.12 in1020.0 mb 0.00 in0.0 mm 0.00 in0.0 mm 0.00 in0.0 mm
07:10 PM 66.4°F19.1°C 47.2°F8.4°C 50% 5.4 mph NE8.7 kmh NE 12.0 mph19.3 kmh 30.12 in1020.0 mb 0.00 in0.0 mm 0.00 in0.0 mm 0.00 in0.0 mm
07:05 PM 66.3°F19.1°C 46.6°F8.1°C 49% 4.7 mph NE7.6 kmh NE 11.0 mph17.7 kmh 30.12 in1020.0 mb 0.00 in0.0 mm 0.00 in0.0 mm 0.00 in0.0 mm
07:00 PM 66.3°F19.1°C 46.6°F8.1°C 49% 4.5 mph NE7.2 kmh NE 11.0 mph17.7 kmh 30.12 in1020.0 mb 0.00 in0.0 mm 0.00 in0.0 mm 0.00 in0.0 mm
06:55 PM 66.5°F19.2°C 46.7°F8.2°C 49% 3.2 mph NE5.1 kmh NE 10.0 mph16.1 kmh 30.12 in1020.0 mb 0.00 in0.0 mm 0.00 in0.0 mm 0.00 in0.0 mm
06:50 PM 66.6°F19.2°C 46.3°F7.9°C 48% 4.9 mph NE7.9 kmh NE 10.0 mph16.1 kmh 30.12 in1020.0 mb 0.00 in0.0 mm 0.00 in0.0 mm 0.00 in0.0 mm
06:45 PM 66.5°F19.2°C 46.2°F7.9°C 48% 3.7 mph NE6.0 kmh NE 11.0 mph17.7 kmh 30.12 in1020.0 mb 0.00 in0.0 mm 0.00 in0.0 mm 0.00 in0.0 mm
06:40 PM 66.8°F19.3°C 45.3°F7.4°C 46% 5.5 mph NE8.9 kmh NE 13.0 mph20.9 kmh 30.12 in1020.0 mb 0.00 in0.0 mm 0.00 in0.0 mm 0.00 in0.0 mm
06:35 PM 67.0°F19.4°C 45.0°F7.2°C 45% 4.8 mph NE7.7 kmh NE 14.0 mph22.5 kmh 30.12 in1020.0 mb 0.00 in0.0 mm 0.00 in0.0 mm 0.00 in0.0 mm
06:30 PM 67.1°F19.5°C 44.5°F6.9°C 44% 6.2 mph ENE10.0 kmh ENE 14.0 mph22.5 kmh 30.12 in1020.0 mb 0.00 in0.0 mm 0.00 in0.0 mm 0.00 in0.0 mm
06:25 PM 67.2°F19.6°C 43.9°F6.6°C 43% 8.1 mph NE13.0 kmh NE 13.0 mph20.9 kmh 30.12 in1020.0 mb 0.00 in0.0 mm 0.00 in0.0 mm 0.00 in0.0 mm
06:20 PM 67.6°F19.8°C 43.7°F6.5°C 42% 7.4 mph NE11.9 kmh NE 13.0 mph20.9 kmh 30.12 in1020.0 mb 0.00 in0.0 mm 0.00 in0.0 mm 0.00 in0.0 mm
06:15 PM 67.9°F19.9°C 43.3°F6.3°C 41% 8.0 mph NE12.9 kmh NE 15.0 mph24.1 kmh 30.12 in1020.0 mb 0.00 in0.0 mm 0.00 in0.0 mm 0.00 in0.0 mm
06:10 PM 68.1°F20.1°C 44.8°F7.1°C 43% 5.2 mph NE8.4 kmh NE 8.0 mph12.9 kmh 30.12 in1020.0 mb 0.00 in0.0 mm 0.00 in0.0 mm 0.00 in0.0 mm
06:05 PM 68.1°F20.1°C 43.5°F6.4°C 41% 9.6 mph NE15.4 kmh NE 15.0 mph24.1 kmh 30.12 in1020.0 mb 0.00 in0.0 mm 0.00 in0.0 mm 0.00 in0.0 mm
06:00 PM 68.1°F20.1°C 46.5°F8.1°C 46% 8.1 mph NE13.0 kmh NE 14.0 mph22.5 kmh 30.12 in1020.0 mb 0.00 in0.0 mm 0.00 in0.0 mm 0.00 in0.0 mm
05:55 PM 68.5°F20.3°C 47.5°F8.6°C 47% 9.1 mph ENE14.6 kmh ENE 18.0 mph29.0 kmh 30.12 in1020.0 mb 0.00 in0.0 mm 0.00 in0.0 mm 0.00 in0.0 mm
05:50 PM 69.1°F20.6°C 48.0°F8.9°C 47% 10.7 mph ENE17.2 kmh ENE 20.0 mph32.2 kmh 30.12 in1020.0 mb 0.00 in0.0 mm 0.00 in0.0 mm 0.00 in0.0 mm
05:45 PM 70.4°F21.3°C 48.0°F8.9°C 45% 12.4 mph ENE20.0 kmh ENE 20.0 mph32.2 kmh 30.12 in1020.0 mb 0.00 in0.0 mm 0.00 in0.0 mm 0.00 in0.0 mm
05:40 PM 71.0°F21.7°C 48.0°F8.9°C 44% 11.0 mph NE17.7 kmh NE 18.0 mph29.0 kmh 30.11 in1019.6 mb 0.00 in0.0 mm 0.00 in0.0 mm 0.00 in0.0 mm
05:35 PM 71.5°F21.9°C 48.4°F9.1°C 44% 11.2 mph NE18.0 kmh NE 17.0 mph27.4 kmh 30.11 in1019.6 mb 0.00 in0.0 mm 0.00 in0.0 mm 0.00 in0.0 mm
05:30 PM 71.7°F22.1°C 48.0°F8.9°C 43% 10.5 mph NE16.9 kmh NE 20.0 mph32.2 kmh 30.12 in1020.0 mb 0.00 in0.0 mm 0.00 in0.0 mm 0.00 in0.0 mm
05:25 PM 72.1°F22.3°C 47.1°F8.4°C 41% 9.6 mph NE15.4 kmh NE 20.0 mph32.2 kmh 30.11 in1019.6 mb 0.00 in0.0 mm 0.00 in0.0 mm 0.00 in0.0 mm
05:20 PM 72.8°F22.7°C 45.0°F7.2°C 37% 7.6 mph NE12.2 kmh NE 17.0 mph27.4 kmh 30.11 in1019.6 mb 0.00 in0.0 mm 0.00 in0.0 mm 0.00 in0.0 mm
05:15 PM 73.1°F22.8°C 44.5°F6.9°C 36% 8.4 mph NE13.5 kmh NE 18.0 mph29.0 kmh 30.11 in1019.6 mb 0.00 in0.0 mm 0.00 in0.0 mm 0.00 in0.0 mm
05:10 PM 73.1°F22.8°C 43.8°F6.6°C 35% 10.2 mph NE16.4 kmh NE 18.0 mph29.0 kmh 30.11 in1019.6 mb 0.00 in0.0 mm 0.00 in0.0 mm 0.00 in0.0 mm
05:05 PM 73.3°F22.9°C 44.7°F7.1°C 36% 10.0 mph NE16.1 kmh NE 16.0 mph25.7 kmh 30.11 in1019.6 mb 0.00 in0.0 mm 0.00 in0.0 mm 0.00 in0.0 mm
05:00 PM 73.9°F23.3°C 46.0°F7.8°C 37% 6.9 mph NE11.1 kmh NE 16.0 mph25.7 kmh 30.11 in1019.6 mb 0.00 in0.0 mm 0.00 in0.0 mm 0.00 in0.0 mm
04:55 PM 73.4°F23.0°C 46.2°F7.9°C 38% 10.4 mph ENE16.7 kmh ENE 16.0 mph25.7 kmh 30.11 in1019.6 mb 0.00 in0.0 mm 0.00 in0.0 mm 0.00 in0.0 mm
04:50 PM 73.5°F23.1°C 47.0°F8.3°C 39% 9.3 mph NE15.0 kmh NE 15.0 mph24.1 kmh 30.11 in1019.6 mb 0.00 in0.0 mm 0.00 in0.0 mm 0.00 in0.0 mm
04:45 PM 73.7°F23.2°C 47.9°F8.8°C 40% 8.9 mph NE14.3 kmh NE 17.0 mph27.4 kmh 30.11 in1019.6 mb 0.00 in0.0 mm 0.00 in0.0 mm 0.00 in0.0 mm
04:40 PM 73.6°F23.1°C 48.4°F9.1°C 41% 8.6 mph NE13.8 kmh NE 18.0 mph29.0 kmh 30.11 in1019.6 mb 0.00 in0.0 mm 0.00 in0.0 mm 0.00 in0.0 mm
04:35 PM 73.8°F23.2°C 48.0°F8.9°C 40% 10.8 mph ENE17.4 kmh ENE 18.0 mph29.0 kmh 30.11 in1019.6 mb 0.00 in0.0 mm 0.00 in0.0 mm 0.00 in0.0 mm
04:30 PM 74.3°F23.5°C 49.1°F9.5°C 41% 7.4 mph NE11.9 kmh NE 15.0 mph24.1 kmh 30.11 in1019.6 mb 0.00 in0.0 mm 0.00 in0.0 mm 0.00 in0.0 mm
04:25 PM 74.2°F23.4°C 48.3°F9.1°C 40% 9.1 mph ENE14.6 kmh ENE 18.0 mph29.0 kmh 30.11 in1019.6 mb 0.00 in0.0 mm 0.00 in0.0 mm 0.00 in0.0 mm
04:20 PM 74.0°F23.3°C 48.1°F8.9°C 40% 10.9 mph NE17.5 kmh NE 18.0 mph29.0 kmh 30.11 in1019.6 mb 0.00 in0.0 mm 0.00 in0.0 mm 0.00 in0.0 mm
04:15 PM 74.1°F23.4°C 48.2°F9.0°C 40% 10.1 mph NE16.3 kmh NE 18.0 mph29.0 kmh 30.11 in1019.6 mb 0.00 in0.0 mm 0.00 in0.0 mm 0.00 in0.0 mm
04:10 PM 74.5°F23.6°C 47.9°F8.8°C 39% 9.5 mph NE15.3 kmh NE 17.0 mph27.4 kmh 30.11 in1019.6 mb 0.00 in0.0 mm 0.00 in0.0 mm 0.00 in0.0 mm
04:05 PM 74.9°F23.8°C 48.3°F9.1°C 39% 8.1 mph NE13.0 kmh NE 16.0 mph25.7 kmh 30.11 in1019.6 mb 0.00 in0.0 mm 0.00 in0.0 mm 0.00 in0.0 mm
04:00 PM 75.4°F24.1°C 48.0°F8.9°C 38% 7.9 mph NE12.7 kmh NE 16.0 mph25.7 kmh 30.11 in1019.6 mb 0.00 in0.0 mm 0.00 in0.0 mm 0.00 in0.0 mm
03:55 PM 75.3°F24.1°C 49.3°F9.6°C 40% 8.8 mph NE14.2 kmh NE 15.0 mph24.1 kmh 30.11 in1019.6 mb 0.00 in0.0 mm 0.00 in0.0 mm 0.00 in0.0 mm
03:50 PM 75.8°F24.3°C 49.1°F9.5°C 39% 9.0 mph NE14.5 kmh NE 16.0 mph25.7 kmh 30.11 in1019.6 mb 0.00 in0.0 mm 0.00 in0.0 mm 0.00 in0.0 mm
03:45 PM 76.2°F24.6°C 50.1°F10.1°C 40% 7.8 mph NE12.6 kmh NE 16.0 mph25.7 kmh 30.11 in1019.6 mb 0.00 in0.0 mm 0.00 in0.0 mm 0.00 in0.0 mm
03:40 PM 75.9°F24.4°C 49.8°F9.9°C 40% 9.0 mph NE14.5 kmh NE 16.0 mph25.7 kmh 30.11 in1019.6 mb 0.00 in0.0 mm 0.00 in0.0 mm 0.00 in0.0 mm
03:35 PM 76.3°F24.6°C 49.5°F9.7°C 39% 6.4 mph NE10.3 kmh NE 14.0 mph22.5 kmh 30.11 in1019.6 mb 0.00 in0.0 mm 0.00 in0.0 mm 0.00 in0.0 mm
03:30 PM 76.0°F24.4°C 49.9°F9.9°C 40% 7.4 mph NE11.9 kmh NE 16.0 mph25.7 kmh 30.11 in1019.6 mb 0.00 in0.0 mm 0.00 in0.0 mm 0.00 in0.0 mm
03:25 PM 76.2°F24.6°C 50.1°F10.1°C 40% 7.0 mph NE11.3 kmh NE 16.0 mph25.7 kmh 30.11 in1019.6 mb 0.00 in0.0 mm 0.00 in0.0 mm 0.00 in0.0 mm
03:20 PM 76.2°F24.6°C 49.4°F9.7°C 39% 9.4 mph NE15.1 kmh NE 16.0 mph25.7 kmh 30.11 in1019.6 mb 0.00 in0.0 mm 0.00 in0.0 mm 0.00 in0.0 mm
03:15 PM 76.2°F24.6°C 50.1°F10.1°C 40% 8.2 mph NE13.2 kmh NE 16.0 mph25.7 kmh 30.11 in1019.6 mb 0.00 in0.0 mm 0.00 in0.0 mm 0.00 in0.0 mm
03:10 PM 76.1°F24.5°C 49.3°F9.6°C 39% 9.6 mph NE15.4 kmh NE 14.0 mph22.5 kmh 30.11 in1019.6 mb 0.00 in0.0 mm 0.00 in0.0 mm 0.00 in0.0 mm
03:05 PM 76.9°F24.9°C 50.0°F10.0°C 39% 8.1 mph NE13.0 kmh NE 17.0 mph27.4 kmh 30.11 in1019.6 mb 0.00 in0.0 mm 0.00 in0.0 mm 0.00 in0.0 mm
03:00 PM 76.8°F24.9°C 49.9°F9.9°C 39% 9.8 mph NE15.8 kmh NE 17.0 mph27.4 kmh 30.12 in1020.0 mb 0.00 in0.0 mm 0.00 in0.0 mm 0.00 in0.0 mm
02:55 PM 76.9°F24.9°C 50.0°F10.0°C 39% 7.4 mph NE11.9 kmh NE 12.0 mph19.3 kmh 30.11 in1019.6 mb 0.00 in0.0 mm 0.00 in0.0 mm 0.00 in0.0 mm
02:50 PM 77.4°F25.2°C 49.8°F9.9°C 38% 9.4 mph NE15.1 kmh NE 15.0 mph24.1 kmh 30.11 in1019.6 mb 0.00 in0.0 mm 0.00 in0.0 mm 0.00 in0.0 mm
02:45 PM 77.6°F25.3°C 50.0°F10.0°C 38% 6.4 mph NE10.3 kmh NE 12.0 mph19.3 kmh 30.12 in1020.0 mb 0.00 in0.0 mm 0.00 in0.0 mm 0.00 in0.0 mm
02:40 PM 77.9°F25.5°C 50.2°F10.1°C 38% 7.7 mph NE12.4 kmh NE 20.0 mph32.2 kmh 30.11 in1019.6 mb 0.00 in0.0 mm 0.00 in0.0 mm 0.00 in0.0 mm
02:35 PM 78.0°F25.6°C 52.4°F11.3°C 41% 10.0 mph NE16.1 kmh NE 20.0 mph32.2 kmh 30.11 in1019.6 mb 0.00 in0.0 mm 0.00 in0.0 mm 0.00 in0.0 mm
02:30 PM 77.9°F25.5°C 50.2°F10.1°C 38% 10.4 mph NE16.7 kmh NE 18.0 mph29.0 kmh 30.12 in1020.0 mb 0.00 in0.0 mm 0.00 in0.0 mm 0.00 in0.0 mm
02:25 PM 77.5°F25.3°C 51.9°F11.1°C 41% 9.2 mph NE14.8 kmh NE 17.0 mph27.4 kmh 30.12 in1020.0 mb 0.00 in0.0 mm 0.00 in0.0 mm 0.00 in0.0 mm
02:20 PM 78.0°F25.6°C 51.0°F10.6°C 39% 10.0 mph ENE16.1 kmh ENE 17.0 mph27.4 kmh 30.12 in1020.0 mb 0.00 in0.0 mm 0.00 in0.0 mm 0.00 in0.0 mm
02:15 PM 78.1°F25.6°C 51.8°F11.0°C 40% 6.6 mph NE10.6 kmh NE 16.0 mph25.7 kmh 30.12 in1020.0 mb 0.00 in0.0 mm 0.00 in0.0 mm 0.00 in0.0 mm
02:10 PM 78.2°F25.7°C 51.2°F10.7°C 39% 8.9 mph NE14.3 kmh NE 15.0 mph24.1 kmh 30.12 in1020.0 mb 0.00 in0.0 mm 0.00 in0.0 mm 0.00 in0.0 mm
02:05 PM 78.7°F25.9°C 50.9°F10.5°C 38% 7.6 mph NE12.2 kmh NE 15.0 mph24.1 kmh 30.12 in1020.0 mb 0.00 in0.0 mm 0.00 in0.0 mm 0.00 in0.0 mm
02:00 PM 77.9°F25.5°C 50.9°F10.5°C 39% 8.7 mph ENE14.0 kmh ENE 18.0 mph29.0 kmh 30.12 in1020.0 mb 0.00 in0.0 mm 0.00 in0.0 mm 0.00 in0.0 mm
01:55 PM 77.9°F25.5°C 50.9°F10.5°C 39% 10.2 mph ENE16.4 kmh ENE 18.0 mph29.0 kmh 30.12 in1020.0 mb 0.00 in0.0 mm 0.00 in0.0 mm 0.00 in0.0 mm
01:50 PM 78.6°F25.9°C 51.5°F10.8°C 39% 8.6 mph NE13.8 kmh NE 20.0 mph32.2 kmh 30.12 in1020.0 mb 0.00 in0.0 mm 0.00 in0.0 mm 0.00 in0.0 mm
01:45 PM 78.4°F25.8°C 50.7°F10.4°C 38% 9.7 mph E15.6 kmh E 20.0 mph32.2 kmh 30.12 in1020.0 mb 0.00 in0.0 mm 0.00 in0.0 mm 0.00 in0.0 mm
01:40 PM 78.3°F25.7°C 50.6°F10.3°C 38% 7.1 mph ENE11.4 kmh ENE 16.0 mph25.7 kmh 30.12 in1020.0 mb 0.00 in0.0 mm 0.00 in0.0 mm 0.00 in0.0 mm
01:35 PM 78.4°F25.8°C 50.7°F10.4°C 38% 10.0 mph ENE16.1 kmh ENE 16.0 mph25.7 kmh 30.12 in1020.0 mb 0.00 in0.0 mm 0.00 in0.0 mm 0.00 in0.0 mm
01:30 PM 78.2°F25.7°C 51.2°F10.7°C 39% 9.0 mph NE14.5 kmh NE 18.0 mph29.0 kmh 30.12 in1020.0 mb 0.00 in0.0 mm 0.00 in0.0 mm 0.00 in0.0 mm
01:25 PM 78.0°F25.6°C 48.9°F9.4°C 36% 10.0 mph ENE16.1 kmh ENE 16.0 mph25.7 kmh 30.12 in1020.0 mb 0.00 in0.0 mm 0.00 in0.0 mm 0.00 in0.0 mm
01:20 PM 78.3°F25.7°C 50.6°F10.3°C 38% 10.1 mph NE16.3 kmh NE 19.0 mph30.6 kmh 30.12 in1020.0 mb 0.00 in0.0 mm 0.00 in0.0 mm 0.00 in0.0 mm
01:15 PM 78.6°F25.9°C 49.4°F9.7°C 36% 12.3 mph NE19.8 kmh NE 19.0 mph30.6 kmh 30.12 in1020.0 mb 0.00 in0.0 mm 0.00 in0.0 mm 0.00 in0.0 mm
01:10 PM 78.4°F25.8°C 49.2°F9.6°C 36% 7.4 mph ENE11.9 kmh ENE 15.0 mph24.1 kmh 30.13 in1020.3 mb 0.00 in0.0 mm 0.00 in0.0 mm 0.00 in0.0 mm
01:05 PM 78.4°F25.8°C 50.0°F10.0°C 37% 7.3 mph ENE11.7 kmh ENE 16.0 mph25.7 kmh 30.13 in1020.3 mb 0.00 in0.0 mm 0.00 in0.0 mm 0.00 in0.0 mm
01:00 PM 78.2°F25.7°C 49.8°F9.9°C 37% 8.9 mph E14.3 kmh E 19.0 mph30.6 kmh 30.12 in1020.0 mb 0.00 in0.0 mm 0.00 in0.0 mm 0.00 in0.0 mm
12:55 PM 78.0°F25.6°C 49.6°F9.8°C 37% 8.9 mph ENE14.3 kmh ENE 19.0 mph30.6 kmh 30.13 in1020.3 mb 0.00 in0.0 mm 0.00 in0.0 mm 0.00 in0.0 mm
12:50 PM 78.3°F25.7°C 49.9°F9.9°C 37% 7.4 mph E11.9 kmh E 16.0 mph25.7 kmh 30.12 in1020.0 mb 0.00 in0.0 mm 0.00 in0.0 mm 0.00 in0.0 mm
12:45 PM 78.1°F25.6°C 49.0°F9.4°C 36% 9.7 mph E15.6 kmh E 15.0 mph24.1 kmh 30.13 in1020.3 mb 0.00 in0.0 mm 0.00 in0.0 mm 0.00 in0.0 mm
12:40 PM 77.6°F25.3°C 50.0°F10.0°C 38% 8.0 mph E12.9 kmh E 14.0 mph22.5 kmh 30.13 in1020.3 mb 0.00 in0.0 mm 0.00 in0.0 mm 0.00 in0.0 mm
12:35 PM 77.9°F25.5°C 49.5°F9.7°C 37% 8.9 mph E14.3 kmh E 15.0 mph24.1 kmh 30.13 in1020.3 mb 0.00 in0.0 mm 0.00 in0.0 mm 0.00 in0.0 mm
12:30 PM 78.2°F25.7°C 49.8°F9.9°C 37% 9.3 mph ENE15.0 kmh ENE 15.0 mph24.1 kmh 30.13 in1020.3 mb 0.00 in0.0 mm 0.00 in0.0 mm 0.00 in0.0 mm
12:25 PM 78.3°F25.7°C 50.6°F10.3°C 38% 7.3 mph E11.7 kmh E 15.0 mph24.1 kmh 30.13 in1020.3 mb 0.00 in0.0 mm 0.00 in0.0 mm 0.00 in0.0 mm
12:20 PM 78.0°F25.6°C 51.0°F10.6°C 39% 6.8 mph E10.9 kmh E 13.0 mph20.9 kmh 30.13 in1020.3 mb 0.00 in0.0 mm 0.00 in0.0 mm 0.00 in0.0 mm
12:15 PM 77.7°F25.4°C 51.4°F10.8°C 40% 7.7 mph E12.4 kmh E 14.0 mph22.5 kmh 30.13 in1020.3 mb 0.00 in0.0 mm 0.00 in0.0 mm 0.00 in0.0 mm
12:10 PM 77.5°F25.3°C 51.3°F10.7°C 40% 8.3 mph ENE13.4 kmh ENE 14.0 mph22.5 kmh 30.14 in1020.7 mb 0.00 in0.0 mm 0.00 in0.0 mm 0.00 in0.0 mm
12:05 PM 77.6°F25.3°C 50.0°F10.0°C 38% 8.0 mph E12.9 kmh E 16.0 mph25.7 kmh 30.13 in1020.3 mb 0.00 in0.0 mm 0.00 in0.0 mm 0.00 in0.0 mm
12:00 PM 77.6°F25.3°C 48.5°F9.2°C 36% 9.3 mph E15.0 kmh E 19.0 mph30.6 kmh 30.13 in1020.3 mb 0.00 in0.0 mm 0.00 in0.0 mm 0.00 in0.0 mm
11:55 AM 77.3°F25.2°C 50.4°F10.2°C 39% 9.0 mph E14.5 kmh E 19.0 mph30.6 kmh 30.14 in1020.7 mb 0.00 in0.0 mm 0.00 in0.0 mm 0.00 in0.0 mm
11:50 AM 77.1°F25.1°C 50.2°F10.1°C 39% 10.5 mph E16.9 kmh E 16.0 mph25.7 kmh 30.13 in1020.3 mb 0.00 in0.0 mm 0.00 in0.0 mm 0.00 in0.0 mm
11:45 AM 77.6°F25.3°C 50.7°F10.4°C 39% 8.3 mph ENE13.4 kmh ENE 18.0 mph29.0 kmh 30.14 in1020.7 mb 0.00 in0.0 mm 0.00 in0.0 mm 0.00 in0.0 mm
11:40 AM 77.0°F25.0°C 50.1°F10.1°C 39% 10.4 mph E16.7 kmh E 20.0 mph32.2 kmh 30.14 in1020.7 mb 0.00 in0.0 mm 0.00 in0.0 mm 0.00 in0.0 mm
11:35 AM 76.9°F24.9°C 47.9°F8.8°C 36% 11.3 mph E18.2 kmh E 20.0 mph32.2 kmh 30.14 in1020.7 mb 0.00 in0.0 mm 0.00 in0.0 mm 0.00 in0.0 mm
11:30 AM 76.9°F24.9°C 50.0°F10.0°C 39% 9.8 mph E15.8 kmh E 17.0 mph27.4 kmh 30.14 in1020.7 mb 0.00 in0.0 mm 0.00 in0.0 mm 0.00 in0.0 mm
11:25 AM 77.4°F25.2°C 53.1°F11.7°C 43% 7.1 mph NE11.4 kmh NE 15.0 mph24.1 kmh 30.14 in1020.7 mb 0.00 in0.0 mm 0.00 in0.0 mm 0.00 in0.0 mm
11:20 AM 76.6°F24.8°C 52.4°F11.3°C 43% 8.7 mph ENE14.0 kmh ENE 17.0 mph27.4 kmh 30.14 in1020.7 mb 0.00 in0.0 mm 0.00 in0.0 mm 0.00 in0.0 mm
11:15 AM 76.5°F24.7°C 52.9°F11.6°C 44% 8.6 mph E13.8 kmh E 17.0 mph27.4 kmh 30.14 in1020.7 mb 0.00 in0.0 mm 0.00 in0.0 mm 0.00 in0.0 mm
11:10 AM 76.0°F24.4°C 51.9°F11.1°C 43% 9.6 mph E15.4 kmh E 16.0 mph25.7 kmh 30.14 in1020.7 mb 0.00 in0.0 mm 0.00 in0.0 mm 0.00 in0.0 mm
11:05 AM 76.2°F24.6°C 53.9°F12.2°C 46% 10.5 mph E16.9 kmh E 16.0 mph25.7 kmh 30.14 in1020.7 mb 0.00 in0.0 mm 0.00 in0.0 mm 0.00 in0.0 mm
11:00 AM 76.0°F24.4°C 53.1°F11.7°C 45% 9.5 mph E15.3 kmh E 20.0 mph32.2 kmh 30.14 in1020.7 mb 0.00 in0.0 mm 0.00 in0.0 mm 0.00 in0.0 mm
10:55 AM 75.7°F24.3°C 52.2°F11.2°C 44% 11.4 mph E18.3 kmh E 20.0 mph32.2 kmh 30.14 in1020.7 mb 0.00 in0.0 mm 0.00 in0.0 mm 0.00 in0.0 mm
10:50 AM 76.2°F24.6°C 53.3°F11.8°C 45% 8.4 mph E13.5 kmh E 18.0 mph29.0 kmh 30.14 in1020.7 mb 0.00 in0.0 mm 0.00 in0.0 mm 0.00 in0.0 mm
10:45 AM 76.0°F24.4°C 53.7°F12.1°C 46% 8.0 mph E12.9 kmh E 18.0 mph29.0 kmh 30.14 in1020.7 mb 0.00 in0.0 mm 0.00 in0.0 mm 0.00 in0.0 mm
10:40 AM 75.3°F24.1°C 53.7°F12.1°C 47% 10.3 mph ENE16.6 kmh ENE 18.0 mph29.0 kmh 30.14 in1020.7 mb 0.00 in0.0 mm 0.00 in0.0 mm 0.00 in0.0 mm
10:35 AM 75.7°F24.3°C 54.6°F12.6°C 48% 8.6 mph ENE13.8 kmh ENE 17.0 mph27.4 kmh 30.15 in1021.0 mb 0.00 in0.0 mm 0.00 in0.0 mm 0.00 in0.0 mm
10:30 AM 75.1°F23.9°C 54.1°F12.3°C 48% 10.7 mph ENE17.2 kmh ENE 17.0 mph27.4 kmh 30.14 in1020.7 mb 0.00 in0.0 mm 0.00 in0.0 mm 0.00 in0.0 mm
10:25 AM 74.9°F23.8°C 55.0°F12.8°C 50% 9.1 mph E14.6 kmh E 16.0 mph25.7 kmh 30.14 in1020.7 mb 0.00 in0.0 mm 0.00 in0.0 mm 0.00 in0.0 mm
10:20 AM 75.2°F24.0°C 54.1°F12.3°C 48% 7.3 mph ENE11.7 kmh ENE 14.0 mph22.5 kmh 30.15 in1021.0 mb 0.00 in0.0 mm 0.00 in0.0 mm 0.00 in0.0 mm
10:15 AM 74.3°F23.5°C 55.0°F12.8°C 51% 6.9 mph ENE11.1 kmh ENE 14.0 mph22.5 kmh 30.15 in1021.0 mb 0.00 in0.0 mm 0.00 in0.0 mm 0.00 in0.0 mm
10:10 AM 74.0°F23.3°C 53.6°F12.0°C 49% 9.2 mph ENE14.8 kmh ENE 18.0 mph29.0 kmh 30.15 in1021.0 mb 0.00 in0.0 mm 0.00 in0.0 mm 0.00 in0.0 mm
10:05 AM 74.0°F23.3°C 54.7°F12.6°C 51% 8.3 mph ENE13.4 kmh ENE 18.0 mph29.0 kmh 30.15 in1021.0 mb 0.00 in0.0 mm 0.00 in0.0 mm 0.00 in0.0 mm
10:00 AM 74.3°F23.5°C 54.4°F12.4°C 50% 6.9 mph E11.1 kmh E 16.0 mph25.7 kmh 30.15 in1021.0 mb 0.00 in0.0 mm 0.00 in0.0 mm 0.00 in0.0 mm
09:55 AM 73.6°F23.1°C 54.3°F12.4°C 51% 7.0 mph E11.3 kmh E 16.0 mph25.7 kmh 30.15 in1021.0 mb 0.00 in0.0 mm 0.00 in0.0 mm 0.00 in0.0 mm
09:50 AM 72.6°F22.6°C 54.5°F12.5°C 53% 9.2 mph ENE14.8 kmh ENE 15.0 mph24.1 kmh 30.15 in1021.0 mb 0.00 in0.0 mm 0.00 in0.0 mm 0.00 in0.0 mm
09:45 AM 72.2°F22.3°C 54.6°F12.6°C 54% 8.5 mph E13.7 kmh E 15.0 mph24.1 kmh 30.15 in1021.0 mb 0.00 in0.0 mm 0.00 in0.0 mm 0.00 in0.0 mm
09:40 AM 72.0°F22.2°C 54.4°F12.4°C 54% 8.8 mph E14.2 kmh E 15.0 mph24.1 kmh 30.15 in1021.0 mb 0.00 in0.0 mm 0.00 in0.0 mm 0.00 in0.0 mm
09:35 AM 72.1°F22.3°C 56.0°F13.3°C 57% 6.0 mph ENE9.7 kmh ENE 12.0 mph19.3 kmh 30.15 in1021.0 mb 0.00 in0.0 mm 0.00 in0.0 mm 0.00 in0.0 mm
09:30 AM 71.2°F21.8°C 54.7°F12.6°C 56% 8.1 mph ENE13.0 kmh ENE 15.0 mph24.1 kmh 30.15 in1021.0 mb 0.00 in0.0 mm 0.00 in0.0 mm 0.00 in0.0 mm
09:25 AM 70.6°F21.4°C 54.1°F12.3°C 56% 10.0 mph ENE16.1 kmh ENE 15.0 mph24.1 kmh 30.15 in1021.0 mb 0.00 in0.0 mm 0.00 in0.0 mm 0.00 in0.0 mm
09:20 AM 70.6°F21.4°C 54.1°F12.3°C 56% 7.0 mph E11.3 kmh E 13.0 mph20.9 kmh 30.15 in1021.0 mb 0.00 in0.0 mm 0.00 in0.0 mm 0.00 in0.0 mm
09:15 AM 70.1°F21.2°C 54.6°F12.6°C 58% 7.5 mph NE12.1 kmh NE 13.0 mph20.9 kmh 30.15 in1021.0 mb 0.00 in0.0 mm 0.00 in0.0 mm 0.00 in0.0 mm
09:10 AM 69.5°F20.8°C 54.1°F12.3°C 58% 8.5 mph ENE13.7 kmh ENE 14.0 mph22.5 kmh 30.15 in1021.0 mb 0.00 in0.0 mm 0.00 in0.0 mm 0.00 in0.0 mm
09:05 AM 69.6°F20.9°C 54.6°F12.6°C 59% 7.0 mph ENE11.3 kmh ENE 15.0 mph24.1 kmh 30.15 in1021.0 mb 0.00 in0.0 mm 0.00 in0.0 mm 0.00 in0.0 mm
09:00 AM 68.7°F20.4°C 53.8°F12.1°C 59% 7.7 mph ENE12.4 kmh ENE 15.0 mph24.1 kmh 30.15 in1021.0 mb 0.00 in0.0 mm 0.00 in0.0 mm 0.00 in0.0 mm
08:55 AM 68.6°F20.3°C 54.6°F12.6°C 61% 7.8 mph ENE12.6 kmh ENE 13.0 mph20.9 kmh 30.15 in1021.0 mb 0.00 in0.0 mm 0.00 in0.0 mm 0.00 in0.0 mm
08:50 AM 68.4°F20.2°C 54.4°F12.4°C 61% 7.7 mph ENE12.4 kmh ENE 16.0 mph25.7 kmh 30.16 in1021.3 mb 0.00 in0.0 mm 0.00 in0.0 mm 0.00 in0.0 mm
08:45 AM 68.2°F20.1°C 54.2°F12.3°C 61% 7.5 mph NE12.1 kmh NE 16.0 mph25.7 kmh 30.16 in1021.3 mb 0.00 in0.0 mm 0.00 in0.0 mm 0.00 in0.0 mm
08:40 AM 68.0°F20.0°C 53.6°F12.0°C 60% 7.1 mph NE11.4 kmh NE 14.0 mph22.5 kmh 30.16 in1021.3 mb 0.00 in0.0 mm 0.00 in0.0 mm 0.00 in0.0 mm
08:35 AM 68.0°F20.0°C 54.0°F12.2°C 61% 6.3 mph ENE10.1 kmh ENE 14.0 mph22.5 kmh 30.16 in1021.3 mb 0.00 in0.0 mm 0.00 in0.0 mm 0.00 in0.0 mm
08:30 AM 67.3°F19.6°C 53.4°F11.9°C 61% 7.1 mph ENE11.4 kmh ENE 13.0 mph20.9 kmh 30.16 in1021.3 mb 0.00 in0.0 mm 0.00 in0.0 mm 0.00 in0.0 mm
08:25 AM 67.1°F19.5°C 53.6°F12.0°C 62% 7.9 mph E12.7 kmh E 13.0 mph20.9 kmh 30.16 in1021.3 mb 0.00 in0.0 mm 0.00 in0.0 mm 0.00 in0.0 mm
08:20 AM 67.0°F19.4°C 54.0°F12.2°C 63% 6.6 mph ENE10.6 kmh ENE 13.0 mph20.9 kmh 30.16 in1021.3 mb 0.00 in0.0 mm 0.00 in0.0 mm 0.00 in0.0 mm
08:15 AM 66.9°F19.4°C 54.3°F12.4°C 64% 6.5 mph ENE10.5 kmh ENE 14.0 mph22.5 kmh 30.16 in1021.3 mb 0.00 in0.0 mm 0.00 in0.0 mm 0.00 in0.0 mm
08:10 AM 66.2°F19.0°C 53.2°F11.8°C 63% 8.4 mph ENE13.5 kmh ENE 14.0 mph22.5 kmh 30.16 in1021.3 mb 0.00 in0.0 mm 0.00 in0.0 mm 0.00 in0.0 mm
08:05 AM 66.1°F18.9°C 53.6°F12.0°C 64% 7.7 mph ENE12.4 kmh ENE 14.0 mph22.5 kmh 30.16 in1021.3 mb 0.00 in0.0 mm 0.00 in0.0 mm 0.00 in0.0 mm
08:00 AM 65.8°F18.8°C 53.7°F12.1°C 65% 7.2 mph ENE11.6 kmh ENE 13.0 mph20.9 kmh 30.16 in1021.3 mb 0.00 in0.0 mm 0.00 in0.0 mm 0.00 in0.0 mm
07:55 AM 65.4°F18.6°C 53.3°F11.8°C 65% 6.9 mph ENE11.1 kmh ENE 14.0 mph22.5 kmh 30.16 in1021.3 mb 0.00 in0.0 mm 0.00 in0.0 mm 0.00 in0.0 mm
07:50 AM 65.1°F18.4°C 53.0°F11.7°C 65% 8.4 mph E13.5 kmh E 14.0 mph22.5 kmh 30.15 in1021.0 mb 0.00 in0.0 mm 0.00 in0.0 mm 0.00 in0.0 mm
07:45 AM 64.9°F18.3°C 53.3°F11.8°C 66% 7.9 mph E12.7 kmh E 14.0 mph22.5 kmh 30.15 in1021.0 mb 0.00 in0.0 mm 0.00 in0.0 mm 0.00 in0.0 mm
07:40 AM 64.5°F18.1°C 53.3°F11.8°C 67% 7.7 mph E12.4 kmh E 14.0 mph22.5 kmh 30.15 in1021.0 mb 0.00 in0.0 mm 0.00 in0.0 mm 0.00 in0.0 mm
07:35 AM 64.3°F17.9°C 52.7°F11.5°C 66% 7.5 mph ENE12.1 kmh ENE 12.0 mph19.3 kmh 30.15 in1021.0 mb 0.00 in0.0 mm 0.00 in0.0 mm 0.00 in0.0 mm
07:30 AM 64.2°F17.9°C 53.4°F11.9°C 68% 6.5 mph E10.5 kmh E 13.0 mph20.9 kmh 30.15 in1021.0 mb 0.00 in0.0 mm 0.00 in0.0 mm 0.00 in0.0 mm
07:25 AM 63.6°F17.6°C 52.8°F11.6°C 68% 8.3 mph ENE13.4 kmh ENE 13.0 mph20.9 kmh 30.15 in1021.0 mb 0.00 in0.0 mm 0.00 in0.0 mm 0.00 in0.0 mm
07:20 AM 63.2°F17.3°C 52.9°F11.6°C 69% 7.3 mph ENE11.7 kmh ENE 12.0 mph19.3 kmh 30.15 in1021.0 mb 0.00 in0.0 mm 0.00 in0.0 mm 0.00 in0.0 mm
07:15 AM 63.1°F17.3°C 52.8°F11.6°C 69% 7.5 mph ENE12.1 kmh ENE 13.0 mph20.9 kmh 30.15 in1021.0 mb 0.00 in0.0 mm 0.00 in0.0 mm 0.00 in0.0 mm
07:10 AM 62.9°F17.2°C 53.0°F11.7°C 70% 7.0 mph E11.3 kmh E 13.0 mph20.9 kmh 30.15 in1021.0 mb 0.00 in0.0 mm 0.00 in0.0 mm 0.00 in0.0 mm
07:05 AM 62.5°F16.9°C 52.6°F11.4°C 70% 6.9 mph E11.1 kmh E 14.0 mph22.5 kmh 30.15 in1021.0 mb 0.00 in0.0 mm 0.00 in0.0 mm 0.00 in0.0 mm
07:00 AM 62.3°F16.8°C 52.8°F11.6°C 71% 7.2 mph ENE11.6 kmh ENE 14.0 mph22.5 kmh 30.15 in1021.0 mb 0.00 in0.0 mm 0.00 in0.0 mm 0.00 in0.0 mm
06:55 AM 62.1°F16.7°C 53.0°F11.7°C 72% 6.6 mph ENE10.6 kmh ENE 12.0 mph19.3 kmh 30.15 in1021.0 mb 0.00 in0.0 mm 0.00 in0.0 mm 0.00 in0.0 mm
06:50 AM 61.9°F16.6°C 52.8°F11.6°C 72% 5.1 mph ENE8.2 kmh ENE 10.0 mph16.1 kmh 30.15 in1021.0 mb 0.00 in0.0 mm 0.00 in0.0 mm 0.00 in0.0 mm
06:45 AM 61.4°F16.3°C 52.7°F11.5°C 73% 5.6 mph ENE9.0 kmh ENE 11.0 mph17.7 kmh 30.14 in1020.7 mb 0.00 in0.0 mm 0.00 in0.0 mm 0.00 in0.0 mm
06:40 AM 61.3°F16.3°C 52.6°F11.4°C 73% 6.1 mph ENE9.8 kmh ENE 12.0 mph19.3 kmh 30.14 in1020.7 mb 0.00 in0.0 mm 0.00 in0.0 mm 0.00 in0.0 mm
06:35 AM 61.0°F16.1°C 52.7°F11.5°C 74% 6.5 mph ENE10.5 kmh ENE 12.0 mph19.3 kmh 30.14 in1020.7 mb 0.00 in0.0 mm 0.00 in0.0 mm 0.00 in0.0 mm
06:30 AM 60.7°F15.9°C 52.4°F11.3°C 74% 5.1 mph ENE8.2 kmh ENE 13.0 mph20.9 kmh 30.14 in1020.7 mb 0.00 in0.0 mm 0.00 in0.0 mm 0.00 in0.0 mm
06:25 AM 60.3°F15.7°C 52.0°F11.1°C 74% 6.3 mph ENE10.1 kmh ENE 13.0 mph20.9 kmh 30.15 in1021.0 mb 0.00 in0.0 mm 0.00 in0.0 mm 0.00 in0.0 mm
06:20 AM 60.0°F15.6°C 52.1°F11.2°C 75% 6.8 mph ENE10.9 kmh ENE 11.0 mph17.7 kmh 30.15 in1021.0 mb 0.00 in0.0 mm 0.00 in0.0 mm 0.00 in0.0 mm
06:15 AM 59.8°F15.4°C 52.2°F11.2°C 76% 4.6 mph ENE7.4 kmh ENE 13.0 mph20.9 kmh 30.15 in1021.0 mb 0.00 in0.0 mm 0.00 in0.0 mm 0.00 in0.0 mm
06:10 AM 59.6°F15.3°C 51.7°F10.9°C 75% 7.7 mph ENE12.4 kmh ENE 13.0 mph20.9 kmh 30.15 in1021.0 mb 0.00 in0.0 mm 0.00 in0.0 mm 0.00 in0.0 mm
06:05 AM 59.6°F15.3°C 52.0°F11.1°C 76% 5.5 mph ENE8.9 kmh ENE 13.0 mph20.9 kmh 30.15 in1021.0 mb 0.00 in0.0 mm 0.00 in0.0 mm 0.00 in0.0 mm
06:00 AM 59.2°F15.1°C 52.0°F11.1°C 77% 5.0 mph ENE8.0 kmh ENE 12.0 mph19.3 kmh 30.15 in1021.0 mb 0.00 in0.0 mm 0.00 in0.0 mm 0.00 in0.0 mm
05:55 AM 58.9°F14.9°C 51.7°F10.9°C 77% 6.2 mph ENE10.0 kmh ENE 11.0 mph17.7 kmh 30.15 in1021.0 mb 0.00 in0.0 mm 0.00 in0.0 mm 0.00 in0.0 mm
05:50 AM 58.8°F14.9°C 52.0°F11.1°C 78% 5.7 mph ENE9.2 kmh ENE 11.0 mph17.7 kmh 30.15 in1021.0 mb 0.00 in0.0 mm 0.00 in0.0 mm 0.00 in0.0 mm
05:45 AM 58.5°F14.7°C 51.7°F10.9°C 78% 4.7 mph ENE7.6 kmh ENE 12.0 mph19.3 kmh 30.15 in1021.0 mb 0.00 in0.0 mm 0.00 in0.0 mm 0.00 in0.0 mm
05:40 AM 58.2°F14.6°C 51.4°F10.8°C 78% 5.6 mph ENE9.0 kmh ENE 12.0 mph19.3 kmh 30.15 in1021.0 mb 0.00 in0.0 mm 0.00 in0.0 mm 0.00 in0.0 mm
05:35 AM 57.8°F14.3°C 51.3°F10.7°C 79% 5.1 mph ENE8.2 kmh ENE 11.0 mph17.7 kmh 30.15 in1021.0 mb 0.00 in0.0 mm 0.00 in0.0 mm 0.00 in0.0 mm
05:30 AM 57.4°F14.1°C 50.9°F10.5°C 79% 5.9 mph ENE9.5 kmh ENE 11.0 mph17.7 kmh 30.15 in1021.0 mb 0.00 in0.0 mm 0.00 in0.0 mm 0.00 in0.0 mm
05:25 AM 57.2°F14.0°C 51.1°F10.6°C 80% 5.9 mph ENE9.5 kmh ENE 12.0 mph19.3 kmh 30.15 in1021.0 mb 0.00 in0.0 mm 0.00 in0.0 mm 0.00 in0.0 mm
05:20 AM 57.0°F13.9°C 50.9°F10.5°C 80% 5.7 mph ENE9.2 kmh ENE 12.0 mph19.3 kmh 30.15 in1021.0 mb 0.00 in0.0 mm 0.00 in0.0 mm 0.00 in0.0 mm
05:15 AM 56.8°F13.8°C 51.0°F10.6°C 81% 4.6 mph ENE7.4 kmh ENE 11.0 mph17.7 kmh 30.15 in1021.0 mb 0.00 in0.0 mm 0.00 in0.0 mm 0.00 in0.0 mm
05:10 AM 56.7°F13.7°C 50.9°F10.5°C 81% 5.0 mph ENE8.0 kmh ENE 11.0 mph17.7 kmh 30.15 in1021.0 mb 0.00 in0.0 mm 0.00 in0.0 mm 0.00 in0.0 mm
05:05 AM 56.5°F13.6°C 50.7°F10.4°C 81% 5.8 mph ENE9.3 kmh ENE 11.0 mph17.7 kmh 30.15 in1021.0 mb 0.00 in0.0 mm 0.00 in0.0 mm 0.00 in0.0 mm
05:00 AM 56.6°F13.7°C 50.8°F10.4°C 81% 4.9 mph ENE7.9 kmh ENE 11.0 mph17.7 kmh 30.15 in1021.0 mb 0.00 in0.0 mm 0.00 in0.0 mm 0.00 in0.0 mm
04:55 AM 56.7°F13.7°C 50.9°F10.5°C 81% 5.8 mph ENE9.3 kmh ENE 11.0 mph17.7 kmh 30.15 in1021.0 mb 0.00 in0.0 mm 0.00 in0.0 mm 0.00 in0.0 mm
04:50 AM 56.8°F13.8°C 50.7°F10.4°C 80% 5.1 mph ENE8.2 kmh ENE 12.0 mph19.3 kmh 30.15 in1021.0 mb 0.00 in0.0 mm 0.00 in0.0 mm 0.00 in0.0 mm
04:45 AM 57.0°F13.9°C 50.9°F10.5°C 80% 5.7 mph ENE9.2 kmh ENE 14.0 mph22.5 kmh 30.15 in1021.0 mb 0.00 in0.0 mm 0.00 in0.0 mm 0.00 in0.0 mm
04:40 AM 56.9°F13.8°C 50.8°F10.4°C 80% 5.2 mph ENE8.4 kmh ENE 14.0 mph22.5 kmh 30.15 in1021.0 mb 0.00 in0.0 mm 0.00 in0.0 mm 0.00 in0.0 mm
04:35 AM 56.8°F13.8°C 50.7°F10.4°C 80% 5.0 mph ENE8.0 kmh ENE 10.0 mph16.1 kmh 30.15 in1021.0 mb 0.00 in0.0 mm 0.00 in0.0 mm 0.00 in0.0 mm
04:30 AM 56.8°F13.8°C 50.7°F10.4°C 80% 4.6 mph ENE7.4 kmh ENE 10.0 mph16.1 kmh 30.15 in1021.0 mb 0.00 in0.0 mm 0.00 in0.0 mm 0.00 in0.0 mm
04:25 AM 56.7°F13.7°C 50.6°F10.3°C 80% 5.9 mph ENE9.5 kmh ENE 10.0 mph16.1 kmh 30.15 in1021.0 mb 0.00 in0.0 mm 0.00 in0.0 mm 0.00 in0.0 mm
04:20 AM 56.6°F13.7°C 50.8°F10.4°C 81% 5.9 mph ENE9.5 kmh ENE 11.0 mph17.7 kmh 30.15 in1021.0 mb 0.00 in0.0 mm 0.00 in0.0 mm 0.00 in0.0 mm
04:15 AM 56.5°F13.6°C 50.4°F10.2°C 80% 6.1 mph ENE9.8 kmh ENE 11.0 mph17.7 kmh 30.15 in1021.0 mb 0.00 in0.0 mm 0.00 in0.0 mm 0.00 in0.0 mm
04:10 AM 56.4°F13.6°C 50.6°F10.3°C 81% 5.3 mph ENE8.5 kmh ENE 11.0 mph17.7 kmh 30.14 in1020.7 mb 0.00 in0.0 mm 0.00 in0.0 mm 0.00 in0.0 mm
04:05 AM 56.5°F13.6°C 50.4°F10.2°C 80% 5.1 mph ENE8.2 kmh ENE 11.0 mph17.7 kmh 30.15 in1021.0 mb 0.00 in0.0 mm 0.00 in0.0 mm 0.00 in0.0 mm
04:00 AM 56.7°F13.7°C 50.6°F10.3°C 80% 5.0 mph ENE8.0 kmh ENE 11.0 mph17.7 kmh 30.14 in1020.7 mb 0.00 in0.0 mm 0.00 in0.0 mm 0.00 in0.0 mm
03:55 AM 56.9°F13.8°C 50.8°F10.4°C 80% 5.7 mph ENE9.2 kmh ENE 11.0 mph17.7 kmh 30.14 in1020.7 mb 0.00 in0.0 mm 0.00 in0.0 mm 0.00 in0.0 mm
03:50 AM 56.8°F13.8°C 50.7°F10.4°C 80% 5.9 mph ENE9.5 kmh ENE 11.0 mph17.7 kmh 30.14 in1020.7 mb 0.00 in0.0 mm 0.00 in0.0 mm 0.00 in0.0 mm
03:45 AM 56.6°F13.7°C 50.8°F10.4°C 81% 5.1 mph NE8.2 kmh NE 10.0 mph16.1 kmh 30.14 in1020.7 mb 0.00 in0.0 mm 0.00 in0.0 mm 0.00 in0.0 mm
03:40 AM 56.5°F13.6°C 50.4°F10.2°C 80% 4.7 mph NE7.6 kmh NE 10.0 mph16.1 kmh 30.15 in1021.0 mb 0.00 in0.0 mm 0.00 in0.0 mm 0.00 in0.0 mm
03:35 AM 56.5°F13.6°C 50.4°F10.2°C 80% 3.7 mph ENE6.0 kmh ENE 8.0 mph12.9 kmh 30.15 in1021.0 mb 0.00 in0.0 mm 0.00 in0.0 mm 0.00 in0.0 mm
03:30 AM 56.4°F13.6°C 50.3°F10.2°C 80% 3.3 mph ENE5.3 kmh ENE 7.0 mph11.3 kmh 30.14 in1020.7 mb 0.00 in0.0 mm 0.00 in0.0 mm 0.00 in0.0 mm
03:25 AM 56.6°F13.7°C 50.5°F10.3°C 80% 3.7 mph ENE6.0 kmh ENE 8.0 mph12.9 kmh 30.14 in1020.7 mb 0.00 in0.0 mm 0.00 in0.0 mm 0.00 in0.0 mm
03:20 AM 56.7°F13.7°C 50.6°F10.3°C 80% 4.2 mph ENE6.8 kmh ENE 8.0 mph12.9 kmh 30.15 in1021.0 mb 0.00 in0.0 mm 0.00 in0.0 mm 0.00 in0.0 mm
03:15 AM 56.6°F13.7°C 50.5°F10.3°C 80% 4.5 mph ENE7.2 kmh ENE 9.0 mph14.5 kmh 30.15 in1021.0 mb 0.00 in0.0 mm 0.00 in0.0 mm 0.00 in0.0 mm
03:10 AM 56.7°F13.7°C 50.6°F10.3°C 80% 4.1 mph ENE6.6 kmh ENE 9.0 mph14.5 kmh 30.15 in1021.0 mb 0.00 in0.0 mm 0.00 in0.0 mm 0.00 in0.0 mm
03:05 AM 56.8°F13.8°C 50.4°F10.2°C 79% 4.7 mph ENE7.6 kmh ENE 10.0 mph16.1 kmh 30.15 in1021.0 mb 0.00 in0.0 mm 0.00 in0.0 mm 0.00 in0.0 mm
03:00 AM 56.9°F13.8°C 50.5°F10.3°C 79% 4.8 mph ENE7.7 kmh ENE 10.0 mph16.1 kmh 30.15 in1021.0 mb 0.00 in0.0 mm 0.00 in0.0 mm 0.00 in0.0 mm
02:55 AM 56.9°F13.8°C 50.5°F10.3°C 79% 4.6 mph E7.4 kmh E 9.0 mph14.5 kmh 30.15 in1021.0 mb 0.00 in0.0 mm 0.00 in0.0 mm 0.00 in0.0 mm
02:50 AM 57.0°F13.9°C 50.6°F10.3°C 79% 4.7 mph ENE7.6 kmh ENE 11.0 mph17.7 kmh 30.15 in1021.0 mb 0.00 in0.0 mm 0.00 in0.0 mm 0.00 in0.0 mm
02:45 AM 57.2°F14.0°C 50.4°F10.2°C 78% 5.2 mph ENE8.4 kmh ENE 11.0 mph17.7 kmh 30.15 in1021.0 mb 0.00 in0.0 mm 0.00 in0.0 mm 0.00 in0.0 mm
02:40 AM 57.2°F14.0°C 50.4°F10.2°C 78% 6.6 mph ENE10.6 kmh ENE 13.0 mph20.9 kmh 30.15 in1021.0 mb 0.00 in0.0 mm 0.00 in0.0 mm 0.00 in0.0 mm
02:35 AM 57.2°F14.0°C 50.4°F10.2°C 78% 6.2 mph ENE10.0 kmh ENE 13.0 mph20.9 kmh 30.15 in1021.0 mb 0.00 in0.0 mm 0.00 in0.0 mm 0.00 in0.0 mm
02:30 AM 57.1°F13.9°C 50.3°F10.2°C 78% 5.2 mph ENE8.4 kmh ENE 11.0 mph17.7 kmh 30.15 in1021.0 mb 0.00 in0.0 mm 0.00 in0.0 mm 0.00 in0.0 mm
02:25 AM 57.1°F13.9°C 50.3°F10.2°C 78% 5.2 mph ENE8.4 kmh ENE 11.0 mph17.7 kmh 30.16 in1021.3 mb 0.00 in0.0 mm 0.00 in0.0 mm 0.00 in0.0 mm
02:20 AM 57.2°F14.0°C 50.4°F10.2°C 78% 5.5 mph E8.9 kmh E 13.0 mph20.9 kmh 30.16 in1021.3 mb 0.00 in0.0 mm 0.00 in0.0 mm 0.00 in0.0 mm
02:15 AM 57.1°F13.9°C 50.3°F10.2°C 78% 7.9 mph E12.7 kmh E 13.0 mph20.9 kmh 30.15 in1021.0 mb 0.00 in0.0 mm 0.00 in0.0 mm 0.00 in0.0 mm
02:10 AM 57.1°F13.9°C 50.3°F10.2°C 78% 6.2 mph E10.0 kmh E 14.0 mph22.5 kmh 30.15 in1021.0 mb 0.00 in0.0 mm 0.00 in0.0 mm 0.00 in0.0 mm
02:05 AM 57.0°F13.9°C 50.2°F10.1°C 78% 6.2 mph E10.0 kmh E 15.0 mph24.1 kmh 30.15 in1021.0 mb 0.00 in0.0 mm 0.00 in0.0 mm 0.00 in0.0 mm
02:00 AM 57.0°F13.9°C 50.2°F10.1°C 78% 6.6 mph ENE10.6 kmh ENE 15.0 mph24.1 kmh 30.15 in1021.0 mb 0.00 in0.0 mm 0.00 in0.0 mm 0.00 in0.0 mm
01:55 AM 57.0°F13.9°C 50.2°F10.1°C 78% 6.9 mph ENE11.1 kmh ENE 12.0 mph19.3 kmh 30.15 in1021.0 mb 0.00 in0.0 mm 0.00 in0.0 mm 0.00 in0.0 mm
01:50 AM 57.1°F13.9°C 50.3°F10.2°C 78% 7.1 mph ENE11.4 kmh ENE 14.0 mph22.5 kmh 30.15 in1021.0 mb 0.00 in0.0 mm 0.00 in0.0 mm 0.00 in0.0 mm
01:45 AM 57.1°F13.9°C 50.3°F10.2°C 78% 7.8 mph ENE12.6 kmh ENE 14.0 mph22.5 kmh 30.16 in1021.3 mb 0.00 in0.0 mm 0.00 in0.0 mm 0.00 in0.0 mm
01:40 AM 57.1°F13.9°C 50.0°F10.0°C 77% 7.1 mph ENE11.4 kmh ENE 13.0 mph20.9 kmh 30.16 in1021.3 mb 0.00 in0.0 mm 0.00 in0.0 mm 0.00 in0.0 mm
01:35 AM 57.2°F14.0°C 50.1°F10.1°C 77% 5.5 mph E8.9 kmh E 12.0 mph19.3 kmh 30.16 in1021.3 mb 0.00 in0.0 mm 0.00 in0.0 mm 0.00 in0.0 mm
01:30 AM 57.3°F14.1°C 50.2°F10.1°C 77% 6.3 mph ENE10.1 kmh ENE 12.0 mph19.3 kmh 30.16 in1021.3 mb 0.00 in0.0 mm 0.00 in0.0 mm 0.00 in0.0 mm
01:25 AM 57.4°F14.1°C 50.2°F10.1°C 77% 6.3 mph ENE10.1 kmh ENE 12.0 mph19.3 kmh 30.16 in1021.3 mb 0.00 in0.0 mm 0.00 in0.0 mm 0.00 in0.0 mm
01:20 AM 57.5°F14.2°C 50.0°F10.0°C 76% 7.4 mph ENE11.9 kmh ENE 14.0 mph22.5 kmh 30.16 in1021.3 mb 0.00 in0.0 mm 0.00 in0.0 mm 0.00 in0.0 mm
01:15 AM 57.5°F14.2°C 50.0°F10.0°C 76% 6.2 mph ENE10.0 kmh ENE 14.0 mph22.5 kmh 30.15 in1021.0 mb 0.00 in0.0 mm 0.00 in0.0 mm 0.00 in0.0 mm
01:10 AM 57.6°F14.2°C 50.1°F10.1°C 76% 5.2 mph ENE8.4 kmh ENE 13.0 mph20.9 kmh 30.15 in1021.0 mb 0.00 in0.0 mm 0.00 in0.0 mm 0.00 in0.0 mm
01:05 AM 57.6°F14.2°C 50.1°F10.1°C 76% 7.1 mph ENE11.4 kmh ENE 13.0 mph20.9 kmh 30.15 in1021.0 mb 0.00 in0.0 mm 0.00 in0.0 mm 0.00 in0.0 mm
01:00 AM 57.6°F14.2°C 50.1°F10.1°C 76% 6.7 mph ENE10.8 kmh ENE 14.0 mph22.5 kmh 30.15 in1021.0 mb 0.00 in0.0 mm 0.00 in0.0 mm 0.00 in0.0 mm
12:55 AM 57.7°F14.3°C 50.2°F10.1°C 76% 7.6 mph ENE12.2 kmh ENE 15.0 mph24.1 kmh 30.15 in1021.0 mb 0.00 in0.0 mm 0.00 in0.0 mm 0.00 in0.0 mm
12:50 AM 57.8°F14.3°C 50.3°F10.2°C 76% 6.0 mph ENE9.7 kmh ENE 15.0 mph24.1 kmh 30.15 in1021.0 mb 0.00 in0.0 mm 0.00 in0.0 mm 0.00 in0.0 mm
12:45 AM 57.8°F14.3°C 49.9°F9.9°C 75% 6.9 mph ENE11.1 kmh ENE 13.0 mph20.9 kmh 30.16 in1021.3 mb 0.00 in0.0 mm 0.00 in0.0 mm 0.00 in0.0 mm
12:40 AM 58.0°F14.4°C 50.1°F10.1°C 75% 6.8 mph ENE10.9 kmh ENE 14.0 mph22.5 kmh 30.15 in1021.0 mb 0.00 in0.0 mm 0.00 in0.0 mm 0.00 in0.0 mm
12:35 AM 57.9°F14.4°C 50.0°F10.0°C 75% 7.1 mph ENE11.4 kmh ENE 14.0 mph22.5 kmh 30.15 in1021.0 mb 0.00 in0.0 mm 0.00 in0.0 mm 0.00 in0.0 mm
12:30 AM 58.0°F14.4°C 50.1°F10.1°C 75% 6.8 mph ENE10.9 kmh ENE 15.0 mph24.1 kmh 30.15 in1021.0 mb 0.00 in0.0 mm 0.00 in0.0 mm 0.00 in0.0 mm
12:25 AM 58.0°F14.4°C 50.1°F10.1°C 75% 6.9 mph ENE11.1 kmh ENE 15.0 mph24.1 kmh 30.15 in1021.0 mb 0.00 in0.0 mm 0.00 in0.0 mm 0.00 in0.0 mm
12:20 AM 58.0°F14.4°C 50.1°F10.1°C 75% 6.8 mph ENE10.9 kmh ENE 12.0 mph19.3 kmh 30.15 in1021.0 mb 0.00 in0.0 mm 0.00 in0.0 mm 0.00 in0.0 mm
12:15 AM 57.9°F14.4°C 50.0°F10.0°C 75% 6.0 mph ENE9.7 kmh ENE 11.0 mph17.7 kmh 30.15 in1021.0 mb 0.00 in0.0 mm 0.00 in0.0 mm 0.00 in0.0 mm
12:10 AM 57.9°F14.4°C 50.0°F10.0°C 75% 4.3 mph ENE6.9 kmh ENE 11.0 mph17.7 kmh 30.15 in1021.0 mb 0.00 in0.0 mm 0.00 in0.0 mm 0.00 in0.0 mm
12:05 AM 58.0°F14.4°C 50.1°F10.1°C 75% 5.5 mph ENE8.9 kmh ENE 12.0 mph19.3 kmh 30.16 in1021.3 mb 0.00 in0.0 mm 0.00 in0.0 mm 0.00 in0.0 mm
12:00 AM 58.2°F14.6°C 50.0°F10.0°C 74% 5.8 mph ENE9.3 kmh ENE 12.0 mph19.3 kmh 30.16 in1021.3 mb 0.00 in0.0 mm 0.00 in0.0 mm 0.00 in0.0 mm